Time;durP1;ratioP1;P1;durP2;ratioP2;P2;SDS_P1;SDS_P2;PMS_P1;PMS_P2;Temp;Humidity;BMP_temperature;BMP_pressure;BME280_temperature;BME280_humidity;BME280_pressure;Samples;Min_cycle;Max_cycle;Signal;HPM_P1;HPM_P2
2023/05/11 00:01:51;;;;;;;1.38;0.80;;;12.30;1.00;;;;;;7373581;19;20006;-72
2023/05/11 00:04:21;;;;;;;1.10;0.70;;;12.20;1.00;;;;;;7372371;19;20445;-71
2023/05/11 00:06:51;;;;;;;1.42;0.70;;;12.20;1.00;;;;;;7374594;19;20031;-71
2023/05/11 00:09:21;;;;;;;3.03;1.17;;;12.30;1.00;;;;;;7374186;19;20011;-71
2023/05/11 00:11:52;;;;;;;1.55;0.88;;;12.30;1.00;;;;;;7394857;19;20021;-71
2023/05/11 00:14:22;;;;;;;2.70;0.60;;;12.30;1.00;;;;;;7371970;19;20804;-72
2023/05/11 00:16:55;;;;;;;2.08;1.00;;;12.30;1.00;;;;;;7374879;19;20007;-71
2023/05/11 00:19:25;;;;;;;2.03;0.88;;;12.20;1.00;;;;;;7373800;19;20011;-72
2023/05/11 00:21:55;;;;;;;3.33;0.90;;;12.30;1.00;;;;;;7372109;19;20007;-71
2023/05/11 00:24:24;;;;;;;1.23;0.90;;;12.30;1.00;;;;;;7371536;19;20018;-71
2023/05/11 00:26:54;;;;;;;1.25;0.90;;;12.20;1.00;;;;;;7396768;19;20458;-72
2023/05/11 00:29:24;;;;;;;3.42;1.13;;;12.10;1.00;;;;;;7373345;19;20018;-70
2023/05/11 00:31:57;;;;;;;3.22;0.93;;;12.10;1.00;;;;;;7372713;19;20448;-72
2023/05/11 00:34:27;;;;;;;1.80;0.90;;;12.00;1.00;;;;;;7372083;19;20017;-72
2023/05/11 00:36:57;;;;;;;1.75;0.90;;;12.10;1.00;;;;;;7374642;19;20394;-72
2023/05/11 00:39:26;;;;;;;3.58;0.80;;;12.00;1.00;;;;;;7374328;19;19999;-72
2023/05/11 00:41:56;;;;;;;1.48;0.80;;;12.00;1.00;;;;;;7395451;19;20123;-71
2023/05/11 00:44:26;;;;;;;4.30;1.20;;;11.90;1.00;;;;;;7371945;19;20070;-71
2023/05/11 00:46:59;;;;;;;1.83;0.85;;;11.90;1.00;;;;;;7373551;19;20510;-71
2023/05/11 00:49:31;;;;;;;1.85;1.27;;;11.80;1.00;;;;;;7373531;19;20019;-72
2023/05/11 00:52:01;;;;;;;4.40;1.30;;;11.80;1.00;;;;;;7371446;19;20011;-72
2023/05/11 00:54:32;;;;;;;2.72;1.20;;;11.80;1.00;;;;;;7371288;19;20019;-71
2023/05/11 00:57:02;;;;;;;3.67;1.52;;;11.80;1.00;;;;;;7395976;19;20022;-72
2023/05/11 00:59:33;;;;;;;2.60;1.40;;;11.80;1.00;;;;;;7373018;19;20481;-72
2023/05/11 01:02:06;;;;;;;2.88;1.20;;;11.80;1.30;;;;;;7372017;19;20014;-72
2023/05/11 01:04:37;;;;;;;2.97;0.83;;;11.80;1.00;;;;;;7373205;19;20014;-72
2023/05/11 01:07:13;;;;;;;3.72;1.02;;;11.80;1.00;;;;;;7374938;19;20254;-71
2023/05/11 01:09:54;;;;;;;3.03;1.20;;;11.80;1.00;;;;;;7372869;19;20090;-72
2023/05/11 01:12:31;;;;;;;1.60;0.90;;;11.90;1.00;;;;;;7374274;19;20075;-72
2023/05/11 01:15:05;;;;;;;1.30;0.80;;;11.90;1.00;;;;;;7393821;19;20088;-72
2023/05/11 01:17:45;;;;;;;2.03;0.80;;;12.00;1.00;;;;;;7374685;19;20367;-71
2023/05/11 01:20:23;;;;;;;1.20;0.80;;;12.00;1.00;;;;;;7371204;19;20014;-71
2023/05/11 01:23:14;;;;;;;1.85;0.95;;;12.10;1.00;;;;;;7373103;19;20009;-72
2023/05/11 01:25:54;;;;;;;1.15;0.85;;;12.00;1.00;;;;;;7373069;19;20010;-72
2023/05/11 01:28:36;;;;;;;2.70;1.10;;;12.00;1.00;;;;;;7372238;19;20007;-71
2023/05/11 01:31:11;;;;;;;3.65;1.10;;;12.00;1.00;;;;;;7371614;19;20367;-71
2023/05/11 01:33:49;;;;;;;5.03;1.20;;;11.90;1.00;;;;;;7371487;19;20490;-71
2023/05/11 01:36:21;;;;;;;4.30;1.05;;;11.80;1.00;;;;;;7374693;19;20002;-71
2023/05/11 01:38:53;;;;;;;2.75;0.85;;;11.80;1.00;;;;;;7394550;19;20021;-72
2023/05/11 01:41:25;;;;;;;4.63;0.85;;;11.90;1.00;;;;;;7372930;19;20010;-71
2023/05/11 01:43:59;;;;;;;1.33;0.93;;;11.90;1.00;;;;;;7369657;19;20006;-71
2023/05/11 01:46:34;;;;;;;1.63;0.90;;;11.80;1.00;;;;;;7373448;19;20018;-71
2023/05/11 01:49:08;;;;;;;2.42;1.20;;;11.90;1.00;;;;;;7372018;19;20016;-72
2023/05/11 01:51:40;;;;;;;2.05;0.90;;;11.90;1.00;;;;;;7373156;19;20010;-71
2023/05/11 01:54:11;;;;;;;1.75;1.10;;;12.00;1.00;;;;;;7370896;19;20014;-72
2023/05/11 01:56:44;;;;;;;2.30;1.20;;;12.00;1.00;;;;;;7395564;19;20014;-72
2023/05/11 01:59:16;;;;;;;1.88;1.10;;;11.90;1.00;;;;;;7371873;19;20006;-70
2023/05/11 02:01:49;;;;;;;3.00;1.15;;;11.90;1.00;;;;;;7371891;19;20011;-71
2023/05/11 02:04:22;;;;;;;1.70;1.17;;;12.00;1.00;;;;;;7370647;19;20350;-71
2023/05/11 02:06:53;;;;;;;1.20;0.85;;;11.90;1.00;;;;;;7372683;19;20010;-71
2023/05/11 02:09:25;;;;;;;2.13;0.90;;;11.80;1.00;;;;;;7371303;19;20011;-71
2023/05/11 02:11:56;;;;;;;2.70;1.00;;;11.80;1.00;;;;;;7394254;19;20010;-72
2023/05/11 02:14:32;;;;;;;2.72;1.00;;;11.90;1.00;;;;;;7368602;19;20006;-72
2023/05/11 02:17:07;;;;;;;2.03;0.90;;;11.90;1.00;;;;;;7371453;19;20377;-72
2023/05/11 02:19:39;;;;;;;2.05;0.93;;;11.90;1.00;;;;;;7371513;19;20015;-72
2023/05/11 02:22:10;;;;;;;2.83;1.00;;;11.90;1.00;;;;;;7370916;19;20010;-73
2023/05/11 02:24:41;;;;;;;2.35;0.90;;;11.90;1.00;;;;;;7370109;19;20018;-72
2023/05/11 02:27:11;;;;;;;3.17;1.25;;;11.90;1.00;;;;;;7372754;19;20527;-73
2023/05/11 02:29:41;;;;;;;3.33;1.10;;;11.80;1.50;;;;;;7390982;19;20013;-70
2023/05/11 02:32:18;;;;;;;2.42;1.23;;;11.80;1.60;;;;;;7372126;19;20019;-71
2023/05/11 02:34:55;;;;;;;2.80;1.60;;;11.80;1.50;;;;;;7369123;19;20010;-70
2023/05/11 02:37:28;;;;;;;1.95;1.05;;;11.80;1.60;;;;;;7372089;19;20034;-70
2023/05/11 02:40:00;;;;;;;1.00;0.80;;;11.80;1.60;;;;;;7370827;19;20034;-72
2023/05/11 02:42:37;;;;;;;2.28;1.10;;;11.80;1.60;;;;;;7371073;19;19999;-72
2023/05/11 02:45:12;;;;;;;1.77;0.80;;;11.80;1.60;;;;;;7391994;19;20032;-72
2023/05/11 02:47:49;;;;;;;1.58;0.98;;;11.80;2.60;;;;;;7371807;19;20014;-71
2023/05/11 02:50:24;;;;;;;1.27;1.00;;;11.70;2.40;;;;;;7368979;19;20011;-70
2023/05/11 02:52:58;;;;;;;1.67;0.95;;;11.80;2.50;;;;;;7369718;19;20006;-71
2023/05/11 02:55:29;;;;;;;1.40;1.10;;;11.70;2.50;;;;;;7370197;19;20494;-71
2023/05/11 02:57:59;;;;;;;3.30;0.90;;;11.70;2.10;;;;;;7370665;19;20007;-71
2023/05/11 03:00:29;;;;;;;2.45;1.15;;;11.70;2.40;;;;;;7369369;19;20020;-71
2023/05/11 03:03:02;;;;;;;2.33;0.80;;;11.70;2.80;;;;;;7391329;19;20262;-72
2023/05/11 03:05:32;;;;;;;2.65;0.80;;;11.70;3.20;;;;;;7369569;19;20014;-71
2023/05/11 03:08:02;;;;;;;1.10;0.85;;;11.70;2.00;;;;;;7370316;19;20183;-72
2023/05/11 03:10:33;;;;;;;2.13;1.05;;;11.70;3.00;;;;;;7368301;19;20014;-72
2023/05/11 03:13:03;;;;;;;4.50;1.60;;;11.60;3.90;;;;;;7369033;19;20021;-71
2023/05/11 03:15:34;;;;;;;3.25;1.10;;;11.70;4.10;;;;;;7369591;19;20010;-71
2023/05/11 03:18:08;;;;;;;4.45;1.50;;;11.60;3.30;;;;;;7392517;19;20029;-72
2023/05/11 03:20:41;;;;;;;3.65;1.25;;;11.70;4.30;;;;;;7369066;19;20038;-72
2023/05/11 03:23:13;;;;;;;1.52;1.00;;;11.70;3.20;;;;;;7368513;19;20670;-71
2023/05/11 03:25:44;;;;;;;1.33;1.08;;;11.70;3.10;;;;;;7370023;19;20003;-71
2023/05/11 03:28:16;;;;;;;4.93;1.58;;;11.70;4.00;;;;;;7370408;19;20382;-72
2023/05/11 03:30:48;;;;;;;1.27;1.02;;;11.60;4.10;;;;;;7368512;19;20007;-72
2023/05/11 03:33:21;;;;;;;1.10;1.00;;;11.60;5.10;;;;;;7366283;19;20009;-71
2023/05/11 03:35:52;;;;;;;1.92;1.30;;;11.50;5.00;;;;;;7391502;19;20010;-71
2023/05/11 03:38:25;;;;;;;1.10;1.00;;;11.50;4.60;;;;;;7369415;19;20025;-71
2023/05/11 03:40:57;;;;;;;1.45;1.00;;;11.50;5.20;;;;;;7368219;19;20510;-72
2023/05/11 03:43:30;;;;;;;4.72;1.38;;;11.50;5.20;;;;;;7366141;19;20020;-71
2023/05/11 03:46:01;;;;;;;2.30;1.02;;;11.50;5.50;;;;;;7369321;19;20011;-71
2023/05/11 03:48:35;;;;;;;4.97;1.00;;;11.50;5.40;;;;;;7369377;19;20641;-71
2023/05/11 03:51:06;;;;;;;1.48;1.20;;;11.50;5.20;;;;;;7389103;19;20022;-72
2023/05/11 03:53:36;;;;;;;3.65;1.10;;;11.60;5.00;;;;;;7366992;19;20060;-71
2023/05/11 03:56:07;;;;;;;1.00;0.90;;;11.60;5.20;;;;;;7368877;19;20007;-72
2023/05/11 03:58:40;;;;;;;1.65;1.20;;;11.60;5.00;;;;;;7368735;19;20011;-71
2023/05/11 04:01:11;;;;;;;3.33;1.45;;;11.50;3.90;;;;;;7368270;19;20030;-72
2023/05/11 04:03:52;;;;;;;3.65;1.48;;;11.50;4.70;;;;;;7366941;19;20031;-71
2023/05/11 04:06:22;;;;;;;3.88;1.50;;;11.60;5.30;;;;;;7369971;19;20031;-72
2023/05/11 04:08:52;;;;;;;2.97;1.40;;;11.60;4.00;;;;;;7388097;19;20034;-72
2023/05/11 04:11:22;;;;;;;1.30;1.17;;;11.60;3.90;;;;;;7368237;19;20010;-71
2023/05/11 04:13:52;;;;;;;2.55;1.30;;;11.60;3.30;;;;;;7366524;19;20084;-71
2023/05/11 04:16:22;;;;;;;2.95;1.38;;;11.60;4.00;;;;;;7369456;19;20010;-72
2023/05/11 04:18:54;;;;;;;1.58;1.40;;;11.50;3.90;;;;;;7367729;19;20014;-72
2023/05/11 04:21:24;;;;;;;2.58;1.38;;;11.50;4.30;;;;;;7368138;19;20456;-72
2023/05/11 04:23:54;;;;;;;1.58;1.20;;;11.50;5.30;;;;;;7387612;19;20495;-72
2023/05/11 04:26:25;;;;;;;3.55;1.90;;;11.60;3.90;;;;;;7368199;19;20070;-72
2023/05/11 04:28:55;;;;;;;3.22;1.60;;;11.60;4.30;;;;;;7367396;19;20022;-69
2023/05/11 04:31:24;;;;;;;2.63;1.30;;;11.60;3.70;;;;;;7366822;19;20466;-71
2023/05/11 04:33:57;;;;;;;2.65;1.35;;;11.60;3.80;;;;;;7364728;19;20007;-72
2023/05/11 04:36:27;;;;;;;2.60;1.70;;;11.60;4.20;;;;;;7368329;19;20010;-71
2023/05/11 04:38:57;;;;;;;2.08;1.40;;;11.50;4.50;;;;;;7389096;19;20022;-71
2023/05/11 04:41:27;;;;;;;1.77;1.38;;;11.60;4.10;;;;;;7367007;19;20022;-71
2023/05/11 04:43:57;;;;;;;1.77;1.67;;;11.50;4.70;;;;;;7365127;19;20374;-72
2023/05/11 04:46:26;;;;;;;3.20;2.10;;;11.60;4.80;;;;;;7374716;19;20050;-71
2023/05/11 04:48:59;;;;;;;3.42;2.20;;;11.50;5.50;;;;;;7374578;19;20039;-71
2023/05/11 04:51:29;;;;;;;2.40;2.17;;;11.70;5.80;;;;;;7372601;19;20090;-72
2023/05/11 04:53:59;;;;;;;2.25;1.95;;;11.80;5.10;;;;;;7394303;19;20011;-71
2023/05/11 04:56:29;;;;;;;2.33;2.13;;;11.70;4.90;;;;;;7374635;19;20066;-71
2023/05/11 04:58:59;;;;;;;2.78;1.80;;;11.70;5.00;;;;;;7373441;19;20011;-71
2023/05/11 05:01:29;;;;;;;3.97;1.70;;;11.70;5.40;;;;;;7374140;19;20007;-71
2023/05/11 05:04:01;;;;;;;4.72;1.98;;;11.70;5.10;;;;;;7370971;19;20034;-71
2023/05/11 05:06:31;;;;;;;3.60;1.73;;;11.70;4.70;;;;;;7374067;19;20019;-71
2023/05/11 05:09:01;;;;;;;1.77;1.52;;;11.70;4.50;;;;;;7395539;19;20025;-72
2023/05/11 05:11:33;;;;;;;2.15;1.40;;;11.70;5.80;;;;;;7371408;19;20014;-71
2023/05/11 05:14:03;;;;;;;2.40;1.75;;;11.80;4.90;;;;;;7371080;19;20013;-72
2023/05/11 05:16:33;;;;;;;4.55;1.70;;;11.80;5.30;;;;;;7374630;19;20364;-71
2023/05/11 05:19:06;;;;;;;3.03;1.60;;;11.80;4.80;;;;;;7373556;19;20007;-71
2023/05/11 05:21:36;;;;;;;2.65;1.48;;;11.80;3.70;;;;;;7372442;19;20047;-71
2023/05/11 05:24:09;;;;;;;2.03;1.83;;;11.70;4.60;;;;;;7393102;19;20023;-70
2023/05/11 05:26:40;;;;;;;4.78;1.80;;;11.70;4.80;;;;;;7374572;19;20385;-71
2023/05/11 05:29:09;;;;;;;3.17;1.92;;;11.80;5.20;;;;;;7372185;19;20367;-71
2023/05/11 05:31:39;;;;;;;2.05;1.80;;;11.70;4.40;;;;;;7372636;19;20014;-72
2023/05/11 05:34:12;;;;;;;5.30;1.50;;;11.70;5.70;;;;;;7370991;19;20316;-70
2023/05/11 05:36:45;;;;;;;2.38;1.80;;;11.80;5.00;;;;;;7373567;19;20006;-71
2023/05/11 05:39:15;;;;;;;3.30;1.75;;;11.80;5.10;;;;;;7373028;19;20022;-72
2023/05/11 05:41:47;;;;;;;3.92;1.98;;;11.80;5.50;;;;;;7394362;19;20010;-72
2023/05/11 05:44:22;;;;;;;6.63;2.72;;;11.80;4.70;;;;;;7370119;19;20011;-71
2023/05/11 05:46:52;;;;;;;5.93;1.80;;;11.80;5.20;;;;;;7372399;19;20624;-72
2023/05/11 05:49:25;;;;;;;3.97;2.15;;;11.80;4.10;;;;;;7371246;19;20010;-72
2023/05/11 05:51:54;;;;;;;4.53;2.75;;;11.80;5.00;;;;;;7371224;19;20010;-72
2023/05/11 05:54:24;;;;;;;5.45;2.60;;;11.90;4.80;;;;;;7369487;19;20011;-72
2023/05/11 05:56:54;;;;;;;4.57;2.40;;;11.90;3.80;;;;;;7391927;19;20539;-70
2023/05/11 05:59:24;;;;;;;4.63;2.10;;;11.80;5.90;;;;;;7370563;19;20511;-71
2023/05/11 06:01:54;;;;;;;4.10;2.17;;;11.90;3.60;;;;;;7370907;19;20006;-70
2023/05/11 06:04:26;;;;;;;4.30;2.10;;;11.70;4.00;;;;;;7370427;19;20006;-72
2023/05/11 06:06:57;;;;;;;4.68;2.70;;;11.80;4.90;;;;;;7371734;19;20014;-72
2023/05/11 06:09:27;;;;;;;4.53;2.08;;;11.90;5.80;;;;;;7372050;19;20010;-72
2023/05/11 06:11:57;;;;;;;5.78;2.10;;;11.70;5.80;;;;;;7391195;19;20034;-71
2023/05/11 06:14:27;;;;;;;4.10;2.55;;;11.90;6.40;;;;;;7369175;19;20082;-70
2023/05/11 06:16:57;;;;;;;2.97;2.47;;;12.20;6.30;;;;;;7371776;19;20470;-71
2023/05/11 06:19:29;;;;;;;4.55;2.10;;;12.00;5.00;;;;;;7370809;19;20019;-71
2023/05/11 06:21:59;;;;;;;7.22;2.78;;;11.90;6.90;;;;;;7371051;19;20017;-71
2023/05/11 06:24:29;;;;;;;4.10;2.60;;;11.80;5.40;;;;;;7369074;19;20019;-70
2023/05/11 06:26:59;;;;;;;5.38;2.30;;;12.10;7.00;;;;;;7393449;19;20010;-69
2023/05/11 06:29:29;;;;;;;3.70;2.08;;;12.20;6.20;;;;;;7369703;19;20034;-71
2023/05/11 06:31:59;;;;;;;3.13;2.20;;;12.10;7.60;;;;;;7368764;19;20011;-70
2023/05/11 06:34:31;;;;;;;7.07;2.30;;;12.00;6.40;;;;;;7368235;19;20011;-70
2023/05/11 06:37:01;;;;;;;2.50;2.30;;;12.10;7.20;;;;;;7371052;19;20019;-71
2023/05/11 06:39:31;;;;;;;5.53;2.30;;;12.20;8.80;;;;;;7369821;19;20023;-70
2023/05/11 06:42:01;;;;;;;3.30;2.38;;;12.30;7.80;;;;;;7392471;19;20011;-72
2023/05/11 06:44:35;;;;;;;3.08;2.38;;;12.20;6.60;;;;;;7368827;19;20018;-71
2023/05/11 06:47:06;;;;;;;4.32;2.50;;;12.10;6.10;;;;;;7370118;19;20687;-72
2023/05/11 06:49:38;;;;;;;4.25;2.40;;;11.90;8.50;;;;;;7369966;19;20014;-71
2023/05/11 06:52:08;;;;;;;3.85;2.45;;;11.80;5.90;;;;;;7369151;19;20042;-71
2023/05/11 06:54:38;;;;;;;4.80;2.50;;;11.80;8.00;;;;;;7368390;19;20018;-70
2023/05/11 06:57:08;;;;;;;4.90;3.10;;;11.90;8.20;;;;;;7390606;19;20025;-71
2023/05/11 06:59:38;;;;;;;5.35;2.70;;;11.90;9.70;;;;;;7369447;19;20029;-71
2023/05/11 07:02:08;;;;;;;3.45;2.97;;;11.80;9.00;;;;;;7368827;19;20033;-72
2023/05/11 07:04:40;;;;;;;3.10;2.80;;;12.00;9.20;;;;;;7369238;19;20496;-71
2023/05/11 07:07:11;;;;;;;5.80;3.00;;;12.10;11.70;;;;;;7370500;19;20014;-72
2023/05/11 07:09:40;;;;;;;3.53;2.70;;;12.10;8.50;;;;;;7369034;19;20446;-72
2023/05/11 07:12:10;;;;;;;3.55;2.97;;;12.20;10.60;;;;;;7370815;19;20014;-71
2023/05/11 07:14:41;;;;;;;3.80;2.97;;;12.20;8.70;;;;;;7390080;19;20018;-71
2023/05/11 07:17:10;;;;;;;5.13;3.85;;;12.30;9.30;;;;;;7369231;19;20023;-71
2023/05/11 07:19:43;;;;;;;5.10;3.25;;;12.20;9.30;;;;;;7368902;19;20018;-73
2023/05/11 07:22:13;;;;;;;3.70;3.20;;;12.20;9.50;;;;;;7369428;19;20015;-72
2023/05/11 07:24:43;;;;;;;5.18;3.25;;;12.40;10.70;;;;;;7368785;19;20094;-71
2023/05/11 07:27:13;;;;;;;3.95;2.83;;;12.50;10.70;;;;;;7370126;19;20018;-73
2023/05/11 07:29:43;;;;;;;5.65;3.17;;;12.50;9.50;;;;;;7388841;19;20018;-72
2023/05/11 07:32:13;;;;;;;6.75;3.65;;;12.40;9.40;;;;;;7367175;19;20042;-72
2023/05/11 07:34:45;;;;;;;4.00;3.10;;;12.70;11.30;;;;;;7358818;19;20014;-71
2023/05/11 07:37:15;;;;;;;6.10;3.42;;;12.40;8.00;;;;;;7366481;19;20025;-71
2023/05/11 07:39:45;;;;;;;4.50;3.10;;;12.20;7.90;;;;;;7367492;19;20010;-71
2023/05/11 07:42:15;;;;;;;7.57;4.10;;;12.20;9.70;;;;;;7366391;19;20010;-72
2023/05/11 07:44:45;;;;;;;3.80;3.00;;;12.30;12.80;;;;;;7389031;19;20014;-71
2023/05/11 07:47:16;;;;;;;7.05;3.25;;;12.10;9.90;;;;;;7367565;19;20031;-71
2023/05/11 07:49:49;;;;;;;4.25;3.40;;;12.10;10.10;;;;;;7366332;19;20010;-71
2023/05/11 07:52:19;;;;;;;4.18;3.33;;;12.30;10.80;;;;;;7366038;19;20003;-72
2023/05/11 07:54:51;;;;;;;4.45;3.13;;;12.50;10.00;;;;;;7367681;19;20003;-72
2023/05/11 07:57:21;;;;;;;4.70;3.47;;;12.50;10.00;;;;;;7367559;19;20064;-72
2023/05/11 07:59:51;;;;;;;4.75;3.00;;;12.50;9.50;;;;;;7388440;19;20096;-72
2023/05/11 08:02:21;;;;;;;5.18;3.35;;;12.20;9.40;;;;;;7366993;19;20011;-72
2023/05/11 08:04:53;;;;;;;4.68;3.40;;;12.20;11.00;;;;;;7367105;19;20028;-73
2023/05/11 08:07:23;;;;;;;7.43;3.95;;;12.10;9.20;;;;;;7367683;19;20007;-71
2023/05/11 08:09:53;;;;;;;4.50;3.25;;;12.30;13.00;;;;;;7367361;19;20007;-71
2023/05/11 08:12:23;;;;;;;6.50;3.60;;;12.40;9.50;;;;;;7365805;19;20565;-73
2023/05/11 08:14:54;;;;;;;4.10;3.70;;;12.40;12.50;;;;;;7388370;19;20018;-71
2023/05/11 08:17:24;;;;;;;4.22;3.13;;;12.50;14.00;;;;;;7366987;19;20029;-72
2023/05/11 08:19:56;;;;;;;4.80;3.47;;;12.60;9.60;;;;;;7367954;19;20017;-72
2023/05/11 08:22:26;;;;;;;4.03;3.20;;;12.60;7.70;;;;;;7374435;19;20011;-72
2023/05/11 08:24:56;;;;;;;4.97;3.22;;;12.50;9.00;;;;;;7374249;19;20009;-71
2023/05/11 08:27:26;;;;;;;6.60;3.47;;;12.60;9.50;;;;;;7375027;19;20014;-71
2023/05/11 08:29:56;;;;;;;5.05;3.38;;;12.30;9.40;;;;;;7394528;19;20362;-72
2023/05/11 08:32:28;;;;;;;4.43;3.35;;;12.50;12.10;;;;;;7373000;19;20093;-72
2023/05/11 08:35:00;;;;;;;4.05;3.53;;;12.80;11.90;;;;;;7373790;19;20010;-73
2023/05/11 08:37:30;;;;;;;3.70;3.00;;;12.70;12.40;;;;;;7374493;19;20082;-72
2023/05/11 08:40:01;;;;;;;3.67;3.10;;;12.30;9.30;;;;;;7373427;19;20018;-71
2023/05/11 08:42:34;;;;;;;6.30;3.20;;;12.40;13.40;;;;;;7373547;19;20025;-72
2023/05/11 08:45:05;;;;;;;4.75;3.13;;;12.60;11.30;;;;;;7395975;19;20018;-72
2023/05/11 08:47:36;;;;;;;4.50;3.22;;;12.60;12.10;;;;;;7374720;19;20010;-72
2023/05/11 08:50:09;;;;;;;3.90;2.85;;;12.50;9.50;;;;;;7363994;19;20015;-71
2023/05/11 08:52:39;;;;;;;2.80;2.60;;;12.70;7.20;;;;;;7371867;19;20019;-72
2023/05/11 08:55:11;;;;;;;6.32;2.70;;;12.60;8.20;;;;;;7373617;19;20006;-71
2023/05/11 08:57:45;;;;;;;3.72;3.13;;;12.90;9.10;;;;;;7374418;19;20034;-72
2023/05/11 09:00:17;;;;;;;4.82;2.88;;;12.80;9.50;;;;;;7372464;19;20006;-72
2023/05/11 09:02:47;;;;;;;4.32;3.20;;;12.40;9.50;;;;;;7395085;19;20018;-72
2023/05/11 09:05:20;;;;;;;3.83;2.63;;;12.50;11.80;;;;;;7373330;19;20002;-72
2023/05/11 09:07:54;;;;;;;2.70;2.50;;;12.50;8.20;;;;;;7373854;19;20081;-72
2023/05/11 09:10:24;;;;;;;6.22;3.10;;;12.50;10.40;;;;;;7373081;19;20259;-71
2023/05/11 09:12:54;;;;;;;4.38;2.70;;;12.20;8.30;;;;;;7371616;19;20087;-71
2023/05/11 09:15:24;;;;;;;3.85;2.78;;;12.30;9.30;;;;;;7372551;19;20018;-72
2023/05/11 09:17:53;;;;;;;3.55;3.05;;;12.70;12.30;;;;;;7394453;19;20469;-71
2023/05/11 09:20:30;;;;;;;3.47;2.90;;;12.50;11.90;;;;;;7371215;19;19999;-72
2023/05/11 09:23:01;;;;;;;3.20;2.67;;;12.80;11.90;;;;;;7371206;19;20021;-72
2023/05/11 09:25:34;;;;;;;4.28;3.03;;;12.70;6.50;;;;;;7372332;19;20030;-72
2023/05/11 09:28:04;;;;;;;4.40;3.03;;;12.50;5.70;;;;;;7373352;19;20002;-71
2023/05/11 09:30:35;;;;;;;4.45;2.55;;;12.70;9.60;;;;;;7368903;19;20359;-72
2023/05/11 09:33:06;;;;;;;4.15;2.55;;;12.60;5.80;;;;;;7390833;19;20429;-70
2023/05/11 09:35:39;;;;;;;3.63;2.67;;;12.50;8.70;;;;;;7372222;19;20026;-70
2023/05/11 09:38:10;;;;;;;2.75;2.30;;;12.80;12.30;;;;;;7371906;19;20014;-71
2023/05/11 09:40:42;;;;;;;3.55;2.70;;;12.70;11.00;;;;;;7372634;19;20529;-70
2023/05/11 09:43:20;;;;;;;5.07;2.83;;;12.70;13.80;;;;;;7371413;19;20018;-70
2023/05/11 09:45:51;;;;;;;4.80;2.90;;;12.70;11.40;;;;;;7369965;19;20010;-70
2023/05/11 09:48:30;;;;;;;3.85;3.20;;;12.60;12.70;;;;;;7371309;19;20007;-70
2023/05/11 09:51:04;;;;;;;5.25;3.25;;;12.70;15.30;;;;;;7391382;19;20393;-71
2023/05/11 09:53:41;;;;;;;5.72;2.83;;;12.60;10.90;;;;;;7369057;19;20086;-70
2023/05/11 09:56:14;;;;;;;3.47;2.90;;;12.40;13.30;;;;;;7371895;19;20038;-71
2023/05/11 09:58:48;;;;;;;3.72;3.10;;;12.60;14.60;;;;;;7371443;19;20601;-70
2023/05/11 10:01:20;;;;;;;5.40;2.83;;;12.70;13.50;;;;;;7370439;19;20079;-72
2023/05/11 10:03:52;;;;;;;6.18;2.97;;;12.70;13.50;;;;;;7369253;19;20019;-71
2023/05/11 10:06:48;;;;;;;5.10;2.90;;;12.70;13.00;;;;;;7371625;19;20023;-70
2023/05/11 10:09:20;;;;;;;4.43;2.90;;;12.70;12.30;;;;;;7370739;19;20015;-70
2023/05/11 10:11:51;;;;;;;4.35;2.90;;;12.40;10.70;;;;;;7391128;19;20018;-71
2023/05/11 10:14:22;;;;;;;4.00;2.97;;;12.30;11.10;;;;;;7367402;19;20346;-72
2023/05/11 10:16:53;;;;;;;5.10;3.38;;;12.60;16.00;;;;;;7371410;19;20007;-71
2023/05/11 10:19:23;;;;;;;4.10;2.97;;;12.50;10.20;;;;;;7370715;19;20006;-71
2023/05/11 10:21:58;;;;;;;5.00;3.28;;;12.70;14.20;;;;;;7369742;19;20508;-71
2023/05/11 10:24:29;;;;;;;4.28;3.60;;;12.60;13.60;;;;;;7369615;19;20518;-71
2023/05/11 10:27:08;;;;;;;4.28;3.10;;;12.50;12.30;;;;;;7393443;19;20014;-71
2023/05/11 10:29:39;;;;;;;6.22;3.38;;;12.60;15.30;;;;;;7370155;19;20010;-70
2023/05/11 10:32:10;;;;;;;3.92;3.45;;;12.60;14.30;;;;;;7368961;19;20343;-70
2023/05/11 10:34:41;;;;;;;4.47;3.83;;;12.80;15.10;;;;;;7369825;19;20006;-72
2023/05/11 10:37:14;;;;;;;5.85;4.10;;;12.80;13.40;;;;;;7371221;19;20811;-69
2023/05/11 10:39:46;;;;;;;6.78;3.90;;;12.70;14.00;;;;;;7369763;19;20025;-71
2023/05/11 10:42:35;;;;;;;4.00;3.40;;;12.80;11.80;;;;;;7366932;19;20039;-71
2023/05/11 10:45:23;;;;;;;3.30;2.92;;;12.70;13.50;;;;;;7391521;19;20003;-71
2023/05/11 10:48:35;;;;;;;5.97;3.60;;;12.60;14.60;;;;;;7370600;19;20013;-70
2023/05/11 10:51:23;;;;;;;5.25;3.30;;;12.80;12.60;;;;;;7266213;19;2004250;-71
2023/05/11 10:54:23;;;;;;;4.07;2.58;;;12.60;12.00;;;;;;7390353;19;20033;-70
2023/05/11 10:57:13;;;;;;;5.30;3.13;;;12.60;14.30;;;;;;7370777;19;20010;-70
2023/05/11 11:00:09;;;;;;;3.80;2.97;;;12.70;16.90;;;;;;7369232;19;20030;-71
2023/05/11 11:02:39;;;;;;;4.10;3.30;;;12.50;16.30;;;;;;7369135;19;20094;-71
2023/05/11 11:05:12;;;;;;;4.78;3.13;;;12.30;18.40;;;;;;7369317;19;20007;-71
2023/05/11 11:08:02;;;;;;;4.78;3.25;;;12.50;15.20;;;;;;7370092;19;20099;-72
2023/05/11 11:10:37;;;;;;;5.70;3.00;;;12.80;14.70;;;;;;7367682;19;20454;-70
2023/05/11 11:13:08;;;;;;;3.75;3.10;;;13.20;12.10;;;;;;7367460;19;20018;-69
2023/05/11 11:16:08;;;;;;;5.45;2.85;;;13.20;13.20;;;;;;7368836;19;20119;-71
2023/05/11 11:18:38;;;;;;;5.18;2.90;;;13.00;10.20;;;;;;7369162;19;20128;-72
2023/05/11 11:21:12;;;;;;;3.40;2.67;;;13.10;12.50;;;;;;7389411;19;20114;-70
2023/05/11 11:23:50;;;;;;;3.97;3.10;;;13.00;7.20;;;;;;7367246;19;20007;-71
2023/05/11 11:26:49;;;;;;;3.67;2.85;;;13.20;11.30;;;;;;7368960;19;20462;-71
2023/05/11 11:29:19;;;;;;;4.13;2.95;;;13.10;9.90;;;;;;7368066;19;20017;-72
2023/05/11 11:31:49;;;;;;;4.68;3.13;;;13.20;10.70;;;;;;7368574;19;20023;-70
2023/05/11 11:34:39;;;;;;;3.33;2.97;;;13.00;9.80;;;;;;7367838;19;20355;-71
2023/05/11 11:37:12;;;;;;;3.38;3.08;;;13.10;7.90;;;;;;7368325;19;20014;-70
2023/05/11 11:40:04;;;;;;;4.22;2.80;;;13.10;12.70;;;;;;7367999;19;20016;-72
2023/05/11 11:42:46;;;;;;;2.97;2.50;;;13.10;13.60;;;;;;7366846;19;20059;-71
2023/05/11 11:45:34;;;;;;;3.13;2.30;;;13.00;8.20;;;;;;7368175;19;20010;-72
2023/05/11 11:48:13;;;;;;;5.07;2.42;;;13.00;6.90;;;;;;7390244;19;20026;-71
2023/05/11 11:50:45;;;;;;;5.38;3.38;;;13.20;10.30;;;;;;7366964;19;20013;-71
2023/05/11 11:53:50;;;;;;;3.30;2.38;;;13.50;5.50;;;;;;7366905;19;20017;-70
2023/05/11 11:56:40;;;;;;;3.08;2.30;;;13.50;1.00;;;;;;7368079;19;20102;-70
2023/05/11 11:59:13;;;;;;;2.42;2.00;;;13.40;1.00;;;;;;7367507;19;20482;-71
2023/05/11 12:01:46;;;;;;;2.35;1.98;;;13.50;1.00;;;;;;7367249;19;20003;-70
2023/05/11 12:04:26;;;;;;;2.67;1.83;;;13.50;1.00;;;;;;7367623;19;20078;-71
2023/05/11 12:07:00;;;;;;;3.35;2.10;;;13.50;1.00;;;;;;7368005;19;20013;-70
2023/05/11 12:09:30;;;;;;;4.60;2.47;;;13.80;1.00;;;;;;7368762;19;20004;-72
2023/05/11 12:12:02;;;;;;;1.90;1.20;;;13.80;1.00;;;;;;7387479;19;20039;-71
2023/05/11 12:14:36;;;;;;;2.05;1.20;;;14.00;1.00;;;;;;7366096;19;20081;-72
2023/05/11 12:17:15;;;;;;;2.63;1.40;;;13.90;1.00;;;;;;7357668;19;20459;-72
2023/05/11 12:19:46;;;;;;;1.75;1.38;;;14.00;1.00;;;;;;7360579;19;20018;-73
2023/05/11 12:22:22;;;;;;;1.52;1.20;;;14.00;1.00;;;;;;7362725;19;20002;-73
2023/05/11 12:24:57;;;;;;;2.47;1.30;;;13.90;1.00;;;;;;7366581;19;20003;-73
2023/05/11 12:27:29;;;;;;;2.80;1.10;;;13.80;1.00;;;;;;7362765;19;20050;-72
2023/05/11 12:30:01;;;;;;;1.10;0.82;;;14.10;1.00;;;;;;7379306;19;20021;-70
2023/05/11 12:32:33;;;;;;;1.17;1.00;;;13.90;1.00;;;;;;7364731;19;20013;-71
2023/05/11 12:35:04;;;;;;;3.05;1.13;;;14.20;1.00;;;;;;7358894;19;20017;-70
2023/05/11 12:37:35;;;;;;;2.28;1.13;;;14.20;1.00;;;;;;7361151;19;20021;-72
2023/05/11 12:40:05;;;;;;;1.63;1.50;;;14.30;1.00;;;;;;7363031;19;20018;-71
2023/05/11 12:42:35;;;;;;;1.67;1.50;;;14.10;1.00;;;;;;7359704;19;20466;-71
2023/05/11 12:45:09;;;;;;;2.95;1.17;;;14.10;1.00;;;;;;7384875;19;20359;-71
2023/05/11 12:47:39;;;;;;;2.13;1.40;;;14.00;1.00;;;;;;7365532;19;20078;-72
2023/05/11 12:50:11;;;;;;;6.05;3.33;;;13.90;1.00;;;;;;7360931;19;20014;-72
2023/05/11 12:52:40;;;;;;;2.00;1.55;;;14.60;1.00;;;;;;7361906;19;20055;-72
2023/05/11 12:55:11;;;;;;;1.60;1.30;;;14.30;1.00;;;;;;7364422;19;20010;-73
2023/05/11 12:57:42;;;;;;;2.08;1.30;;;14.30;1.00;;;;;;7362269;19;20007;-72
2023/05/11 13:00:17;;;;;;;1.95;1.20;;;14.10;1.00;;;;;;7361469;19;20023;-71
2023/05/11 13:02:52;;;;;;;1.80;0.93;;;14.40;1.00;;;;;;7386212;19;20025;-71
2023/05/11 13:05:26;;;;;;;1.38;1.00;;;14.30;1.00;;;;;;7363152;19;20097;-71
2023/05/11 13:08:00;;;;;;;1.40;0.97;;;14.30;1.00;;;;;;7369012;19;20007;-71
2023/05/11 13:10:30;;;;;;;1.27;0.80;;;14.40;1.00;;;;;;7370703;19;20287;-71
2023/05/11 13:13:01;;;;;;;1.00;0.95;;;14.90;1.00;;;;;;7368607;19;20370;-71
2023/05/11 13:15:34;;;;;;;1.20;0.85;;;14.50;1.00;;;;;;7368840;19;20010;-72
2023/05/11 13:18:04;;;;;;;1.75;0.80;;;14.40;1.00;;;;;;7394894;19;20006;-72
2023/05/11 13:20:35;;;;;;;1.13;0.77;;;14.50;1.00;;;;;;7364677;19;20010;-72
2023/05/11 13:23:07;;;;;;;1.25;0.80;;;14.60;1.00;;;;;;7368092;19;20378;-72
2023/05/11 13:25:53;;;;;;;1.13;0.95;;;14.70;1.00;;;;;;7371556;19;20533;-72